createdAt,value
2023-04-21T11:01:49.633Z,97.25
2023-04-21T11:03:21.826Z,96.50
2023-04-21T11:04:54.457Z,101.75
2023-04-21T11:06:27.301Z,100.25
2023-04-21T11:08:07.266Z,94.25
2023-04-21T11:09:40.248Z,97.75
2023-04-21T11:11:13.124Z,96.75
2023-04-21T11:12:45.040Z,103.00
2023-04-21T11:14:18.101Z,99.25
2023-04-21T11:15:57.264Z,99.75
2023-04-21T11:17:29.460Z,90.25
2023-04-21T11:19:01.596Z,89.75
2023-04-21T11:20:33.530Z,92.75
2023-04-21T11:22:05.913Z,98.75
2023-04-21T11:23:44.012Z,88.00
2023-04-21T11:25:19.389Z,89.75
2023-04-21T11:26:51.752Z,87.50
2023-04-21T11:28:23.911Z,90.50
2023-04-21T11:29:56.011Z,92.00
2023-04-21T11:31:31.273Z,85.75
2023-04-21T11:33:03.432Z,86.75
2023-04-21T11:34:38.674Z,85.50
2023-04-21T11:36:10.587Z,85.50
2023-04-21T11:37:42.575Z,86.75
2023-04-21T11:39:16.649Z,84.75
2023-04-21T11:40:48.794Z,81.50
2023-04-21T11:42:23.580Z,80.75
2023-04-21T11:43:55.750Z,75.00
2023-04-21T11:45:27.983Z,76.50
2023-04-21T11:46:59.974Z,73.75
2023-04-21T11:48:34.718Z,77.60
2023-04-21T11:50:07.239Z,79.50
2023-04-21T11:51:40.313Z,76.50
2023-04-21T11:53:12.368Z,71.40
2023-04-21T11:54:44.303Z,90.00
2023-04-21T11:56:21.934Z,81.00
2023-04-21T11:57:53.841Z,78.00
2023-04-21T11:59:26.657Z,65.40
2023-04-21T12:00:58.755Z,67.20
2023-04-21T12:02:31.588Z,63.40
2023-04-21T12:04:04.028Z,66.20
2023-04-21T12:05:36.726Z,61.75
2023-04-21T12:07:08.637Z,61.50
2023-04-21T12:08:40.898Z,59.50
2023-04-21T12:10:20.001Z,65.75
2023-04-21T12:11:54.075Z,69.25
2023-04-21T12:13:29.704Z,73.00
2023-04-21T12:15:03.598Z,69.20
2023-04-21T12:16:37.089Z,75.40
2023-04-21T12:18:13.082Z,70.80
2023-04-21T12:19:45.315Z,65.20
2023-04-21T12:21:17.832Z,65.40
2023-04-21T12:22:49.900Z,62.60
2023-04-21T12:24:21.834Z,71.60
2023-04-21T12:25:53.794Z,69.80
2023-04-21T12:27:27.205Z,70.60
2023-04-21T12:29:00.773Z,70.80
2023-04-21T12:30:34.051Z,72.80
2023-04-21T12:32:09.452Z,73.25
2023-04-21T12:33:41.953Z,78.75
2023-04-21T12:35:14.087Z,74.50
2023-04-21T12:36:46.031Z,73.25
2023-04-21T12:38:17.952Z,73.20
2023-04-21T12:39:49.979Z,76.50
2023-04-21T12:41:22.059Z,66.40
2023-04-21T12:42:54.009Z,68.80
2023-04-21T12:44:26.092Z,69.40
2023-04-21T12:45:58.076Z,71.80
2023-04-21T12:47:30.532Z,75.00
2023-04-21T12:49:03.950Z,70.40
2023-04-21T12:50:35.901Z,66.20
2023-04-21T12:52:07.902Z,68.20
2023-04-21T12:53:39.883Z,66.40
2023-04-21T12:55:13.709Z,66.00
2023-04-21T12:56:46.236Z,61.20
2023-04-21T12:58:18.137Z,60.50
2023-04-21T12:59:50.051Z,61.50
2023-04-21T13:01:22.323Z,57.25
2023-04-21T13:02:54.446Z,65.25
2023-04-21T13:04:26.770Z,58.25
2023-04-21T13:05:58.965Z,54.25
2023-04-21T13:07:31.619Z,55.50
2023-04-21T13:09:03.688Z,56.50
2023-04-21T13:10:35.603Z,53.00
2023-04-21T13:12:07.617Z,51.75
2023-04-21T13:13:40.218Z,58.75
2023-04-21T13:15:12.372Z,58.50
2023-04-21T13:16:44.337Z,59.25
2023-04-21T13:18:17.412Z,62.00
2023-04-21T13:19:49.650Z,61.00
2023-04-21T13:21:21.637Z,54.00
2023-04-21T13:22:53.549Z,52.75
2023-04-21T13:24:27.018Z,58.00
2023-04-21T13:25:59.000Z,59.00
2023-04-21T13:27:31.038Z,58.00
2023-04-21T13:29:03.641Z,61.00
2023-04-21T13:30:36.954Z,56.50
2023-04-21T13:32:09.068Z,64.75
2023-04-21T13:33:41.382Z,61.00
2023-04-21T13:35:13.407Z,60.50
2023-04-21T13:36:45.706Z,57.50
2023-04-21T13:38:17.799Z,58.25
2023-04-21T13:39:49.795Z,57.75
2023-04-21T13:41:21.690Z,54.50
2023-04-21T13:42:54.118Z,55.75
2023-04-21T13:44:26.156Z,57.00
2023-04-21T13:45:58.059Z,55.25
2023-04-21T13:47:33.589Z,57.50
2023-04-21T13:49:06.906Z,45.50
2023-04-21T13:50:39.667Z,52.75
2023-04-21T13:52:11.756Z,67.20
2023-04-21T13:53:43.575Z,71.40
2023-04-21T13:55:15.627Z,66.40
2023-04-21T13:56:47.592Z,62.40
2023-04-21T13:58:19.589Z,61.25
2023-04-21T13:59:51.614Z,61.80
2023-04-21T14:01:23.636Z,74.80
2023-04-21T14:02:56.206Z,63.40
2023-04-21T14:04:28.700Z,57.50
2023-04-21T14:06:00.759Z,51.25
2023-04-21T14:07:32.992Z,51.25
2023-04-21T14:09:06.692Z,46.75
2023-04-21T14:10:38.911Z,48.50
2023-04-21T14:12:11.446Z,46.50
2023-04-21T14:13:52.252Z,52.75
2023-04-21T14:15:35.481Z,52.25
2023-04-21T14:17:08.200Z,40.75
2023-04-21T14:18:44.570Z,44.00
2023-04-21T14:20:16.510Z,39.75
2023-04-21T14:21:48.542Z,36.50
2023-04-21T14:23:20.477Z,37.00
2023-04-21T14:24:52.649Z,35.50
2023-04-21T14:26:24.788Z,37.00
2023-04-21T14:27:57.024Z,34.25
2023-04-21T14:29:29.056Z,32.25
2023-04-21T14:31:01.208Z,33.25
2023-04-21T14:32:33.179Z,29.80
2023-04-21T14:34:05.186Z,26.00
2023-04-21T14:35:37.712Z,25.60
2023-04-21T14:37:09.721Z,24.80
2023-04-21T14:38:42.855Z,24.60
2023-04-21T14:40:14.899Z,23.60
2023-04-21T14:41:47.088Z,20.60
2023-04-21T14:43:19.253Z,19.60
2023-04-21T14:44:51.377Z,20.20
2023-04-21T14:46:23.501Z,21.00
2023-04-21T14:47:55.600Z,22.20
2023-04-21T14:49:27.679Z,22.80
2023-04-21T14:51:00.097Z,22.60
2023-04-21T14:52:32.709Z,23.20
2023-04-21T14:54:04.715Z,21.20
2023-04-21T14:55:36.840Z,16.60
2023-04-21T14:57:19.802Z,20.20
2023-04-21T14:58:52.898Z,20.20
2023-04-21T15:00:26.077Z,20.20
2023-04-21T15:01:58.311Z,20.60
2023-04-21T15:03:30.638Z,22.20
2023-04-21T15:05:03.773Z,19.60
2023-04-21T15:06:35.897Z,17.80
2023-04-21T15:08:07.882Z,17.20
2023-04-21T15:09:40.205Z,19.80
2023-04-21T15:11:12.178Z,19.60
2023-04-21T15:12:44.261Z,19.00
2023-04-21T15:14:16.416Z,18.00
2023-04-21T15:15:48.341Z,16.40
2023-04-21T15:17:20.264Z,19.20
2023-04-21T15:18:52.398Z,19.00
2023-04-21T15:20:32.703Z,16.60
2023-04-21T15:22:12.898Z,17.00
2023-04-21T15:23:44.776Z,16.80
2023-04-21T15:25:16.781Z,12.20
2023-04-21T15:26:48.822Z,19.00
2023-04-21T15:28:20.812Z,18.00
2023-04-21T15:29:52.834Z,14.60
2023-04-21T15:31:25.062Z,18.20
2023-04-21T15:32:56.982Z,17.40
2023-04-21T15:34:29.239Z,13.20
2023-04-21T15:36:01.218Z,15.60
2023-04-21T15:37:33.154Z,17.00
2023-04-21T15:39:05.108Z,16.20
2023-04-21T15:40:46.399Z,15.00
2023-04-21T15:42:25.291Z,15.80
2023-04-21T15:43:58.462Z,16.80
2023-04-21T15:45:30.455Z,16.00
2023-04-21T15:47:02.437Z,16.40
2023-04-21T15:48:34.592Z,10.80
2023-04-21T15:50:07.117Z,15.20
2023-04-21T15:51:39.018Z,15.00
2023-04-21T15:53:11.110Z,14.20
2023-04-21T15:54:43.395Z,13.20
2023-04-21T15:56:15.905Z,14.00
2023-04-21T15:57:47.796Z,14.40
2023-04-21T15:59:19.768Z,14.20
2023-04-21T16:00:51.621Z,13.60
2023-04-21T16:02:24.415Z,14.20
2023-04-21T16:03:56.704Z,11.80
2023-04-21T16:05:29.327Z,13.80
2023-04-21T16:07:01.557Z,11.40
2023-04-21T16:08:33.654Z,13.20
2023-04-21T16:10:06.882Z,13.00
2023-04-21T16:11:38.938Z,12.60
2023-04-21T16:13:10.902Z,10.80
2023-04-21T16:14:53.525Z,11.80
2023-04-21T16:16:29.346Z,13.00
2023-04-21T16:18:04.141Z,12.40
2023-04-21T16:19:36.219Z,10.00
2023-04-21T16:21:08.385Z,12.60
2023-04-21T16:22:40.490Z,14.00
2023-04-21T16:24:12.550Z,13.80
2023-04-21T16:25:44.864Z,13.00
2023-04-21T16:27:17.128Z,10.60
2023-04-21T16:28:49.250Z,14.00
2023-04-21T16:30:21.311Z,13.20
2023-04-21T16:31:53.331Z,12.80
2023-04-21T16:33:25.290Z,13.00
2023-04-21T16:34:57.266Z,12.00
2023-04-21T16:36:31.462Z,10.60
2023-04-21T16:38:03.831Z,12.00
2023-04-21T16:39:35.904Z,10.00
2023-04-21T16:41:07.767Z,11.80
2023-04-21T16:42:40.063Z,10.00
2023-04-21T16:44:12.153Z,10.80
2023-04-21T16:45:44.138Z,12.40
2023-04-21T16:47:16.220Z,12.00
2023-04-21T16:48:48.305Z,10.40
2023-04-21T16:50:20.388Z,12.20
2023-04-21T16:51:52.318Z,11.40
2023-04-21T16:53:25.867Z,11.40
2023-04-21T16:54:57.881Z,12.00
2023-04-21T16:56:29.822Z,10.00
2023-04-21T16:58:01.701Z,12.00
2023-04-21T16:59:33.699Z,10.20
2023-04-21T17:01:07.760Z,11.00
2023-04-21T17:02:39.853Z,9.40
2023-04-21T17:04:14.180Z,11.00
2023-04-21T17:05:46.336Z,10.00
2023-04-21T17:07:18.484Z,12.40
2023-04-21T17:08:50.657Z,10.60
2023-04-21T17:10:22.647Z,10.00
2023-04-21T17:11:55.082Z,8.00
2023-04-21T17:13:27.235Z,11.00
2023-04-21T17:14:59.177Z,10.60
2023-04-21T17:16:31.549Z,11.80
2023-04-21T17:18:03.738Z,10.20
2023-04-21T17:19:35.678Z,10.80
2023-04-21T17:21:07.556Z,10.80
2023-04-21T17:22:40.109Z,9.00
2023-04-21T17:24:12.276Z,9.60
2023-04-21T17:25:44.397Z,10.80
2023-04-21T17:27:16.350Z,9.60
2023-04-21T17:28:51.252Z,11.80
2023-04-21T17:30:23.539Z,9.80
2023-04-21T17:31:55.447Z,8.20
2023-04-21T17:33:27.391Z,11.00
2023-04-21T17:34:59.461Z,8.20
2023-04-21T17:36:31.399Z,9.40
2023-04-21T17:38:03.293Z,9.60
2023-04-21T17:39:35.231Z,8.40
2023-04-21T17:41:07.933Z,11.40
2023-04-21T17:42:40.588Z,9.00
2023-04-21T17:44:12.421Z,9.60
2023-04-21T17:45:45.292Z,11.00
2023-04-21T17:47:17.434Z,10.00
2023-04-21T17:48:49.629Z,10.00
2023-04-21T17:50:23.190Z,10.00
2023-04-21T17:51:55.255Z,9.40
2023-04-21T17:53:27.395Z,10.00
2023-04-21T17:54:59.336Z,8.40
2023-04-21T17:56:31.629Z,8.00
2023-04-21T17:58:03.621Z,7.40
2023-04-21T17:59:35.542Z,10.00
2023-04-21T18:01:07.900Z,7.80
2023-04-21T18:02:39.867Z,9.20
2023-04-21T18:04:12.101Z,9.20
2023-04-21T18:05:44.654Z,11.00
2023-04-21T18:07:16.794Z,10.60
2023-04-21T18:08:48.948Z,9.00
2023-04-21T18:10:21.397Z,11.20
2023-04-21T18:11:53.369Z,8.40
2023-04-21T18:13:25.910Z,8.00
2023-04-21T18:14:57.833Z,9.20
2023-04-21T18:16:29.825Z,10.20
2023-04-21T18:18:01.931Z,9.00
2023-04-21T18:19:33.832Z,9.40
2023-04-21T18:21:05.928Z,15.00
2023-04-21T18:22:38.180Z,21.00
2023-04-21T18:24:10.136Z,23.60
2023-04-21T18:25:42.994Z,25.00
2023-04-21T18:27:15.498Z,29.00
2023-04-21T18:28:47.639Z,31.00
2023-04-21T18:30:19.567Z,32.80
2023-04-21T18:31:51.477Z,34.50
2023-04-21T18:33:23.631Z,35.25
2023-04-21T18:34:55.717Z,42.25
2023-04-21T18:36:30.758Z,34.75
2023-04-21T18:38:04.715Z,44.00
2023-04-21T18:39:36.773Z,43.25
2023-04-21T18:41:08.667Z,50.00
2023-04-21T18:42:41.435Z,52.00
2023-04-21T18:44:13.316Z,53.75
2023-04-21T18:45:45.519Z,57.50
2023-04-21T18:47:17.579Z,64.20
2023-04-21T18:48:49.623Z,65.75
2023-04-21T18:50:21.561Z,74.00
2023-04-21T18:51:53.511Z,74.00
2023-04-21T18:53:25.473Z,73.75
2023-04-21T18:54:57.359Z,76.75
2023-04-21T18:56:31.497Z,79.50
2023-04-21T18:58:03.458Z,81.75
2023-04-21T18:59:35.665Z,78.50
2023-04-21T19:01:08.169Z,80.75
2023-04-21T19:02:40.703Z,91.00
2023-04-21T19:04:13.362Z,88.00
2023-04-21T19:05:45.456Z,87.75
2023-04-21T19:07:17.485Z,96.50
2023-04-21T19:08:51.356Z,91.00
2023-04-21T19:10:23.452Z,91.25
2023-04-21T19:11:55.302Z,91.50
2023-04-21T19:13:27.596Z,92.25
2023-04-21T19:14:59.525Z,95.25
2023-04-21T19:16:31.691Z,91.75
2023-04-21T19:18:03.889Z,94.00
2023-04-21T19:19:35.859Z,118.50
2023-04-21T19:21:10.540Z,114.75
2023-04-21T19:22:42.597Z,106.25
2023-04-21T19:24:14.415Z,97.50
2023-04-21T19:25:50.452Z,101.00
2023-04-21T19:27:22.604Z,106.75
2023-04-21T19:28:54.568Z,110.00
2023-04-21T19:30:26.538Z,98.00
2023-04-21T19:31:58.947Z,112.75
2023-04-21T19:33:30.877Z,105.00
2023-04-21T19:35:03.091Z,111.00
2023-04-21T19:36:35.101Z,110.75
2023-04-21T19:38:07.128Z,113.25
2023-04-21T19:39:39.171Z,108.25
2023-04-21T19:41:11.071Z,117.50
2023-04-21T19:42:42.960Z,117.50
2023-04-21T19:44:14.855Z,115.25
2023-04-21T19:45:47.552Z,112.75
2023-04-21T19:47:19.577Z,114.25
2023-04-21T19:48:51.718Z,123.25
2023-04-21T19:50:23.712Z,117.75
2023-04-21T19:51:56.197Z,117.25
2023-04-21T19:53:28.178Z,118.25
2023-04-21T19:55:00.165Z,126.25
2023-04-21T19:56:32.858Z,113.25
2023-04-21T19:58:04.705Z,116.50
2023-04-21T19:59:36.939Z,115.00
2023-04-21T20:01:08.996Z,119.00
2023-04-21T20:02:41.226Z,115.00
2023-04-21T20:04:13.713Z,117.25
2023-04-21T20:05:46.054Z,118.50
2023-04-21T20:07:17.918Z,113.00
2023-04-21T20:08:49.895Z,123.00
2023-04-21T20:10:22.269Z,119.25
2023-04-21T20:11:54.389Z,113.50
2023-04-21T20:13:26.358Z,112.25
2023-04-21T20:14:58.356Z,109.75
2023-04-21T20:16:30.400Z,111.50
2023-04-21T20:18:02.642Z,110.75
2023-04-21T20:19:36.033Z,103.75
2023-04-21T20:21:08.152Z,113.50
2023-04-21T20:22:40.087Z,108.75
2023-04-21T20:24:12.452Z,102.75
2023-04-21T20:25:44.330Z,108.25
2023-04-21T20:27:16.363Z,114.00
2023-04-21T20:28:48.305Z,114.00
2023-04-21T20:30:20.498Z,105.25
2023-04-21T20:31:52.398Z,114.50
2023-04-21T20:33:24.740Z,113.00
2023-04-21T20:34:56.536Z,105.00
2023-04-21T20:36:28.707Z,110.00
2023-04-21T20:38:01.434Z,117.25
2023-04-21T20:39:33.360Z,109.75
2023-04-21T20:41:05.201Z,113.25
2023-04-21T20:42:37.835Z,111.50
2023-04-21T20:44:09.931Z,108.00
2023-04-21T20:45:41.834Z,110.75
2023-04-21T20:47:13.804Z,105.75
2023-04-21T20:48:45.918Z,105.25
2023-04-21T20:50:18.476Z,105.75
2023-04-21T20:52:00.151Z,100.25
2023-04-21T20:53:31.996Z,101.75
2023-04-21T20:55:05.174Z,109.75
2023-04-21T20:56:37.223Z,95.00
2023-04-21T20:58:09.159Z,96.75
2023-04-21T20:59:41.387Z,96.50
2023-04-21T21:01:13.833Z,100.50
2023-04-21T21:02:45.905Z,101.75
2023-04-21T21:04:18.132Z,103.00
2023-04-21T21:05:50.754Z,104.00
2023-04-21T21:07:22.707Z,101.00
2023-04-21T21:08:54.584Z,104.75
2023-04-21T21:10:26.544Z,108.50
2023-04-21T21:11:58.364Z,105.50
2023-04-21T21:13:30.441Z,108.25
2023-04-21T21:15:02.834Z,106.00
2023-04-21T21:16:34.819Z,112.00
2023-04-21T21:18:07.390Z,101.75
2023-04-21T21:19:39.610Z,101.50
2023-04-21T21:21:11.921Z,107.50
2023-04-21T21:22:43.817Z,106.25
2023-04-21T21:24:15.607Z,108.00
2023-04-21T21:25:47.510Z,104.50
2023-04-21T21:27:19.577Z,101.75
2023-04-21T21:28:51.586Z,102.75
2023-04-21T21:30:23.497Z,106.00
2023-04-21T21:31:55.480Z,103.75
2023-04-21T21:33:27.477Z,108.50
2023-04-21T21:34:59.336Z,97.75
2023-04-21T21:36:31.932Z,103.00
2023-04-21T21:38:03.852Z,222.50
2023-04-21T21:39:35.971Z,226.67
2023-04-21T21:41:10.353Z,175.00
2023-04-21T21:42:42.289Z,154.25
2023-04-21T21:44:14.183Z,146.33
2023-04-21T21:45:46.125Z,138.67
2023-04-21T21:47:18.387Z,135.33
2023-04-21T21:48:50.341Z,130.33
2023-04-21T21:50:22.252Z,116.00
2023-04-21T21:51:54.877Z,127.00
2023-04-21T21:53:26.774Z,118.33
2023-04-21T21:54:58.787Z,125.00
2023-04-21T21:56:30.835Z,117.25
2023-04-21T21:58:04.203Z,107.50
2023-04-21T21:59:36.409Z,110.25
2023-04-21T22:01:08.850Z,115.25
2023-04-21T22:02:42.337Z,109.25
2023-04-21T22:04:14.570Z,104.50
2023-04-21T22:05:46.726Z,102.25
2023-04-21T22:07:19.181Z,102.50
2023-04-21T22:08:51.548Z,104.25
2023-04-21T22:10:24.108Z,100.25
2023-04-21T22:11:56.025Z,96.50
2023-04-21T22:13:28.325Z,98.75
2023-04-21T22:15:00.459Z,92.00
2023-04-21T22:16:32.430Z,89.75
2023-04-21T22:18:04.720Z,84.75
2023-04-21T22:19:36.968Z,88.25
2023-04-21T22:21:08.968Z,86.50
2023-04-21T22:22:41.244Z,88.00
2023-04-21T22:24:13.187Z,89.00
2023-04-21T22:25:45.464Z,91.75
2023-04-21T22:27:17.402Z,87.50
2023-04-21T22:28:52.188Z,94.75
2023-04-21T22:30:24.177Z,90.25
2023-04-21T22:31:56.099Z,97.25
2023-04-21T22:33:28.181Z,93.00
